Rimbey, Canada
Current Conditions -  °F | °C
As of 9:00 AM on Monday 22 Dec 2014 (Local Time) from CYQF Reporting Station
Broken Clouds Broken Clouds  
Wind Chill: 25°   Ceiling: 9000
Heat Index: 25°   Visibility: 15mi
Dew Point: 21°   Wind: 2mph
Humidity: 86%   Direction: 260°W
Pressure: 29.81"   Gusts: NA
Location:  52.63°N, 114.22°W
Report Text: CYQF 221600Z 26002KT 15SM BKN090 BKN250 M04/M06 A2981 RMK AC6CI1 SLP140
Loading
Personal Weather Stations






























Interactive Weather Map New forecast layout! Learn more

10-Day Weather Forecast

Advertisements
Track Severe Weather on mobile